sensor_id;sensor_type;location;lat;lon;timestamp;temperature;humidity
33091;DHT22;19455;46.074;13.254;2023-05-16T09:11:29;15.60;99.90
33091;DHT22;19455;46.074;13.254;2023-05-16T09:13:55;15.40;99.90
33091;DHT22;19455;46.074;13.254;2023-05-16T09:16:21;15.40;99.90
33091;DHT22;19455;46.074;13.254;2023-05-16T09:18:56;15.30;99.90
33091;DHT22;19455;46.074;13.254;2023-05-16T09:21:41;15.40;99.90
33091;DHT22;19455;46.074;13.254;2023-05-16T09:24:08;15.40;99.90
33091;DHT22;19455;46.074;13.254;2023-05-16T09:26:37;15.40;99.90
33091;DHT22;19455;46.074;13.254;2023-05-16T09:29:10;15.40;99.90
33091;DHT22;19455;46.074;13.254;2023-05-16T09:31:36;15.30;99.90
33091;DHT22;19455;46.074;13.254;2023-05-16T09:34:06;15.30;99.90
33091;DHT22;19455;46.074;13.254;2023-05-16T09:36:32;15.20;99.90
33091;DHT22;19455;46.074;13.254;2023-05-16T09:38:58;15.10;99.90
33091;DHT22;19455;46.074;13.254;2023-05-16T09:41:24;15.00;99.90
33091;DHT22;19455;46.074;13.254;2023-05-16T09:43:50;14.80;99.90
33091;DHT22;19455;46.074;13.254;2023-05-16T09:46:16;14.70;99.90
33091;DHT22;19455;46.074;13.254;2023-05-16T09:48:45;14.60;99.90
33091;DHT22;19455;46.074;13.254;2023-05-16T09:51:12;14.50;99.90
33091;DHT22;19455;46.074;13.254;2023-05-16T09:53:38;14.50;99.90
33091;DHT22;19455;46.074;13.254;2023-05-16T09:56:15;14.60;99.90
33091;DHT22;19455;46.074;13.254;2023-05-16T09:58:42;14.60;99.90
33091;DHT22;19455;46.074;13.254;2023-05-16T10:01:09;14.60;99.90
33091;DHT22;19455;46.074;13.254;2023-05-16T10:03:37;14.60;99.90
33091;DHT22;19455;46.074;13.254;2023-05-16T10:06:04;14.60;99.90
33091;DHT22;19455;46.074;13.254;2023-05-16T10:08:32;14.70;99.90
33091;DHT22;19455;46.074;13.254;2023-05-16T10:11:04;14.90;99.90
33091;DHT22;19455;46.074;13.254;2023-05-16T10:13:32;15.00;99.90
33091;DHT22;19455;46.074;13.254;2023-05-16T10:16:00;15.10;99.90
33091;DHT22;19455;46.074;13.254;2023-05-16T10:18:30;15.30;99.90
33091;DHT22;19455;46.074;13.254;2023-05-16T10:21:02;15.30;99.90
33091;DHT22;19455;46.074;13.254;2023-05-16T10:23:28;15.40;99.90
33091;DHT22;19455;46.074;13.254;2023-05-16T10:25:57;15.40;99.90
33091;DHT22;19455;46.074;13.254;2023-05-16T10:31:28;15.60;99.90
33091;DHT22;19455;46.074;13.254;2023-05-16T10:33:55;15.60;99.90
33091;DHT22;19455;46.074;13.254;2023-05-16T10:36:22;15.60;99.90
33091;DHT22;19455;46.074;13.254;2023-05-16T10:38:48;15.70;99.90
33091;DHT22;19455;46.074;13.254;2023-05-16T10:41:14;15.80;99.90
33091;DHT22;19455;46.074;13.254;2023-05-16T10:43:43;15.90;99.90
33091;DHT22;19455;46.074;13.254;2023-05-16T10:46:11;16.00;99.90
33091;DHT22;19455;46.074;13.254;2023-05-16T10:48:40;16.00;99.90
33091;DHT22;19455;46.074;13.254;2023-05-16T10:53:50;16.10;99.90
33091;DHT22;19455;46.074;13.254;2023-05-16T10:59:22;16.20;99.90
33091;DHT22;19455;46.074;13.254;2023-05-16T11:01:52;16.30;99.90
33091;DHT22;19455;46.074;13.254;2023-05-16T11:04:18;16.30;99.90
33091;DHT22;19455;46.074;13.254;2023-05-16T11:06:45;16.30;99.90
33091;DHT22;19455;46.074;13.254;2023-05-16T11:09:22;16.40;99.90
33091;DHT22;19455;46.074;13.254;2023-05-16T11:14:21;16.30;99.90
33091;DHT22;19455;46.074;13.254;2023-05-16T11:16:58;16.30;99.90
33091;DHT22;19455;46.074;13.254;2023-05-16T11:19:48;16.30;99.90
33091;DHT22;19455;46.074;13.254;2023-05-16T11:22:28;16.30;99.90
33091;DHT22;19455;46.074;13.254;2023-05-16T11:25:06;16.10;99.90
33091;DHT22;19455;46.074;13.254;2023-05-16T11:30:30;16.00;99.90
33091;DHT22;19455;46.074;13.254;2023-05-16T11:32:55;15.90;99.90
33091;DHT22;19455;46.074;13.254;2023-05-16T11:35:21;15.90;99.90
33091;DHT22;19455;46.074;13.254;2023-05-16T11:38:16;15.70;99.90
33091;DHT22;19455;46.074;13.254;2023-05-16T11:40:43;15.60;99.90
33091;DHT22;19455;46.074;13.254;2023-05-16T11:43:17;15.70;99.90
33091;DHT22;19455;46.074;13.254;2023-05-16T11:45:43;15.60;99.90
33091;DHT22;19455;46.074;13.254;2023-05-16T11:48:09;15.50;99.90
33091;DHT22;19455;46.074;13.254;2023-05-16T11:50:35;15.40;99.90
33091;DHT22;19455;46.074;13.254;2023-05-16T11:53:20;15.40;99.90
33091;DHT22;19455;46.074;13.254;2023-05-16T11:56:23;15.30;99.90
33091;DHT22;19455;46.074;13.254;2023-05-16T11:58:49;15.20;99.90
33091;DHT22;19455;46.074;13.254;2023-05-16T12:01:15;15.20;99.90
33091;DHT22;19455;46.074;13.254;2023-05-16T12:06:25;15.30;99.90
33091;DHT22;19455;46.074;13.254;2023-05-16T12:08:51;15.30;99.90
33091;DHT22;19455;46.074;13.254;2023-05-16T12:11:17;15.10;99.90
33091;DHT22;19455;46.074;13.254;2023-05-16T12:13:44;15.10;99.90
33091;DHT22;19455;46.074;13.254;2023-05-16T12:16:11;15.10;99.90
33091;DHT22;19455;46.074;13.254;2023-05-16T12:18:37;15.20;99.90
33091;DHT22;19455;46.074;13.254;2023-05-16T12:21:04;15.20;99.90
33091;DHT22;19455;46.074;13.254;2023-05-16T12:23:32;15.20;99.90
33091;DHT22;19455;46.074;13.254;2023-05-16T12:25:58;15.20;99.90
33091;DHT22;19455;46.074;13.254;2023-05-16T12:28:31;15.20;99.90
33091;DHT22;19455;46.074;13.254;2023-05-16T12:31:01;15.20;99.90
33091;DHT22;19455;46.074;13.254;2023-05-16T12:33:27;15.20;99.90
33091;DHT22;19455;46.074;13.254;2023-05-16T12:35:53;15.20;99.90
33091;DHT22;19455;46.074;13.254;2023-05-16T12:38:19;15.00;99.90
33091;DHT22;19455;46.074;13.254;2023-05-16T12:40:46;15.00;99.90
33091;DHT22;19455;46.074;13.254;2023-05-16T12:45:38;14.80;99.90
33091;DHT22;19455;46.074;13.254;2023-05-16T12:48:04;14.60;99.90
33091;DHT22;19455;46.074;13.254;2023-05-16T12:50:33;14.60;99.90
33091;DHT22;19455;46.074;13.254;2023-05-16T12:53:00;14.50;99.90
33091;DHT22;19455;46.074;13.254;2023-05-16T12:55:25;14.50;99.90
33091;DHT22;19455;46.074;13.254;2023-05-16T12:58:10;14.50;99.90
33091;DHT22;19455;46.074;13.254;2023-05-16T13:00:55;14.50;99.90
33091;DHT22;19455;46.074;13.254;2023-05-16T13:06:05;14.50;99.90
33091;DHT22;19455;46.074;13.254;2023-05-16T13:08:31;14.50;99.90
33091;DHT22;19455;46.074;13.254;2023-05-16T13:11:29;14.50;99.90
33091;DHT22;19455;46.074;13.254;2023-05-16T13:13:55;14.50;99.90
33091;DHT22;19455;46.074;13.254;2023-05-16T13:16:20;14.60;99.90
33091;DHT22;19455;46.074;13.254;2023-05-16T13:18:46;14.60;99.90
33091;DHT22;19455;46.074;13.254;2023-05-16T13:21:12;14.60;99.90
33091;DHT22;19455;46.074;13.254;2023-05-16T13:23:37;14.60;99.90
33091;DHT22;19455;46.074;13.254;2023-05-16T13:26:21;14.70;99.90
33091;DHT22;19455;46.074;13.254;2023-05-16T13:28:47;14.70;99.90
33091;DHT22;19455;46.074;13.254;2023-05-16T13:31:17;14.70;99.90
33091;DHT22;19455;46.074;13.254;2023-05-16T13:33:43;14.70;99.90
33091;DHT22;19455;46.074;13.254;2023-05-16T13:36:09;14.70;99.90
33091;DHT22;19455;46.074;13.254;2023-05-16T13:38:35;14.80;99.90
33091;DHT22;19455;46.074;13.254;2023-05-16T13:41:01;14.80;99.90
33091;DHT22;19455;46.074;13.254;2023-05-16T13:43:27;14.90;99.90
33091;DHT22;19455;46.074;13.254;2023-05-16T13:45:52;14.90;99.90
33091;DHT22;19455;46.074;13.254;2023-05-16T13:48:18;14.90;99.90
33091;DHT22;19455;46.074;13.254;2023-05-16T13:50:44;14.80;99.90
33091;DHT22;19455;46.074;13.254;2023-05-16T13:53:11;14.70;99.90
33091;DHT22;19455;46.074;13.254;2023-05-16T13:55:36;14.80;99.90
33091;DHT22;19455;46.074;13.254;2023-05-16T14:01:28;14.80;99.90
33091;DHT22;19455;46.074;13.254;2023-05-16T14:04:01;14.90;99.90
33091;DHT22;19455;46.074;13.254;2023-05-16T14:06:45;14.90;99.90
33091;DHT22;19455;46.074;13.254;2023-05-16T14:09:17;14.90;99.90
33091;DHT22;19455;46.074;13.254;2023-05-16T14:11:43;14.90;99.90
33091;DHT22;19455;46.074;13.254;2023-05-16T14:14:08;15.00;99.90
33091;DHT22;19455;46.074;13.254;2023-05-16T14:16:49;15.00;99.90
33091;DHT22;19455;46.074;13.254;2023-05-16T14:19:36;15.00;99.90
33091;DHT22;19455;46.074;13.254;2023-05-16T14:22:33;15.00;99.90
33091;DHT22;19455;46.074;13.254;2023-05-16T14:28:22;15.00;99.90
33091;DHT22;19455;46.074;13.254;2023-05-16T14:37:42;15.10;99.90
33091;DHT22;19455;46.074;13.254;2023-05-16T14:40:26;15.10;99.90
33091;DHT22;19455;46.074;13.254;2023-05-16T14:42:52;15.10;99.90
33091;DHT22;19455;46.074;13.254;2023-05-16T14:45:18;15.00;99.90
33091;DHT22;19455;46.074;13.254;2023-05-16T14:48:08;15.00;99.90
33091;DHT22;19455;46.074;13.254;2023-05-16T14:50:34;15.00;99.90
33091;DHT22;19455;46.074;13.254;2023-05-16T14:53:22;15.00;99.90
33091;DHT22;19455;46.074;13.254;2023-05-16T14:55:52;15.00;99.90
33091;DHT22;19455;46.074;13.254;2023-05-16T14:58:33;14.90;99.90
33091;DHT22;19455;46.074;13.254;2023-05-16T15:00:59;14.90;99.90
33091;DHT22;19455;46.074;13.254;2023-05-16T15:04:02;14.80;99.90
33091;DHT22;19455;46.074;13.254;2023-05-16T15:06:27;14.80;99.90
33091;DHT22;19455;46.074;13.254;2023-05-16T15:12:19;14.70;99.90
33091;DHT22;19455;46.074;13.254;2023-05-16T15:17:45;14.70;99.90
33091;DHT22;19455;46.074;13.254;2023-05-16T15:20:14;14.70;99.90
33091;DHT22;19455;46.074;13.254;2023-05-16T15:23:01;14.70;99.90
33091;DHT22;19455;46.074;13.254;2023-05-16T15:25:36;14.80;99.90
33091;DHT22;19455;46.074;13.254;2023-05-16T15:28:07;14.80;99.90
33091;DHT22;19455;46.074;13.254;2023-05-16T15:30:47;14.80;99.90
33091;DHT22;19455;46.074;13.254;2023-05-16T15:33:13;14.80;99.90
33091;DHT22;19455;46.074;13.254;2023-05-16T15:35:39;14.80;99.90
33091;DHT22;19455;46.074;13.254;2023-05-16T15:38:17;14.80;99.90
33091;DHT22;19455;46.074;13.254;2023-05-16T15:40:43;14.80;99.90
33091;DHT22;19455;46.074;13.254;2023-05-16T15:43:28;14.90;99.90
33091;DHT22;19455;46.074;13.254;2023-05-16T15:46:02;14.90;99.90
33091;DHT22;19455;46.074;13.254;2023-05-16T15:51:03;14.90;99.90
33091;DHT22;19455;46.074;13.254;2023-05-16T15:53:38;14.80;99.90
33091;DHT22;19455;46.074;13.254;2023-05-16T15:56:05;14.90;99.90
33091;DHT22;19455;46.074;13.254;2023-05-16T15:58:31;14.80;99.90
33091;DHT22;19455;46.074;13.254;2023-05-16T16:00:56;14.80;99.90
33091;DHT22;19455;46.074;13.254;2023-05-16T16:07:17;14.80;99.90
33091;DHT22;19455;46.074;13.254;2023-05-16T16:15:47;14.90;99.90
33091;DHT22;19455;46.074;13.254;2023-05-16T16:21:19;14.80;99.90
33091;DHT22;19455;46.074;13.254;2023-05-16T16:24:07;14.80;99.90
33091;DHT22;19455;46.074;13.254;2023-05-16T16:27:07;14.80;99.90
33091;DHT22;19455;46.074;13.254;2023-05-16T16:29:32;14.80;99.90
33091;DHT22;19455;46.074;13.254;2023-05-16T16:37:24;14.90;99.90
33091;DHT22;19455;46.074;13.254;2023-05-16T16:45:50;15.00;99.90
33091;DHT22;19455;46.074;13.254;2023-05-16T16:51:56;15.10;99.90
33091;DHT22;19455;46.074;13.254;2023-05-16T16:54:42;15.20;99.90
33091;DHT22;19455;46.074;13.254;2023-05-16T17:06:58;15.30;99.90
33091;DHT22;19455;46.074;13.254;2023-05-16T17:39:02;16.00;99.90
33091;DHT22;19455;46.074;13.254;2023-05-16T17:41:32;16.10;99.90
33091;DHT22;19455;46.074;13.254;2023-05-16T17:43:58;16.10;99.90
33091;DHT22;19455;46.074;13.254;2023-05-16T17:46:24;16.10;99.90
33091;DHT22;19455;46.074;13.254;2023-05-16T17:49:01;16.20;99.90
33091;DHT22;19455;46.074;13.254;2023-05-16T17:51:27;16.20;99.90
33091;DHT22;19455;46.074;13.254;2023-05-16T17:53:53;16.30;99.90
33091;DHT22;19455;46.074;13.254;2023-05-16T17:56:19;16.30;99.90
33091;DHT22;19455;46.074;13.254;2023-05-16T17:58:45;16.30;99.90
33091;DHT22;19455;46.074;13.254;2023-05-16T18:01:11;16.30;99.90
33091;DHT22;19455;46.074;13.254;2023-05-16T18:03:57;16.30;99.90
33091;DHT22;19455;46.074;13.254;2023-05-16T18:06:23;16.30;99.90
33091;DHT22;19455;46.074;13.254;2023-05-16T18:08:48;16.40;99.90
33091;DHT22;19455;46.074;13.254;2023-05-16T18:11:14;16.40;99.90
33091;DHT22;19455;46.074;13.254;2023-05-16T18:14:02;16.50;99.90
33091;DHT22;19455;46.074;13.254;2023-05-16T18:16:29;16.40;99.90
33091;DHT22;19455;46.074;13.254;2023-05-16T18:18:55;16.40;99.90
33091;DHT22;19455;46.074;13.254;2023-05-16T18:24:33;16.40;99.90
33091;DHT22;19455;46.074;13.254;2023-05-16T18:27:00;16.40;99.90
33091;DHT22;19455;46.074;13.254;2023-05-16T18:29:26;16.40;99.90
33091;DHT22;19455;46.074;13.254;2023-05-16T18:32:11;16.40;99.90
33091;DHT22;19455;46.074;13.254;2023-05-16T18:34:36;16.50;99.90
33091;DHT22;19455;46.074;13.254;2023-05-16T18:37:21;16.50;99.90
33091;DHT22;19455;46.074;13.254;2023-05-16T18:39:47;16.50;99.90
33091;DHT22;19455;46.074;13.254;2023-05-16T18:42:32;16.50;99.90
33091;DHT22;19455;46.074;13.254;2023-05-16T18:44:57;16.60;99.90
33091;DHT22;19455;46.074;13.254;2023-05-16T18:47:23;16.60;99.90
33091;DHT22;19455;46.074;13.254;2023-05-16T18:50:17;16.60;99.90
33091;DHT22;19455;46.074;13.254;2023-05-16T18:52:42;16.50;99.90
33091;DHT22;19455;46.074;13.254;2023-05-16T18:55:08;16.60;99.90
33091;DHT22;19455;46.074;13.254;2023-05-16T18:57:34;16.50;99.90
33091;DHT22;19455;46.074;13.254;2023-05-16T19:00:18;16.50;99.90
33091;DHT22;19455;46.074;13.254;2023-05-16T19:02:45;16.60;99.90
33091;DHT22;19455;46.074;13.254;2023-05-16T19:05:11;16.70;99.90
33091;DHT22;19455;46.074;13.254;2023-05-16T19:07:39;16.60;99.90
33091;DHT22;19455;46.074;13.254;2023-05-16T19:10:06;16.70;99.90
33091;DHT22;19455;46.074;13.254;2023-05-16T19:15:38;16.60;99.90
33091;DHT22;19455;46.074;13.254;2023-05-16T19:18:04;16.60;99.90
33091;DHT22;19455;46.074;13.254;2023-05-16T19:20:49;16.60;99.90
33091;DHT22;19455;46.074;13.254;2023-05-16T19:23:15;16.60;99.90
33091;DHT22;19455;46.074;13.254;2023-05-16T19:25:41;16.60;99.90
33091;DHT22;19455;46.074;13.254;2023-05-16T19:28:14;16.60;99.90
33091;DHT22;19455;46.074;13.254;2023-05-16T19:30:47;16.60;99.90
33091;DHT22;19455;46.074;13.254;2023-05-16T19:33:13;16.60;99.90
33091;DHT22;19455;46.074;13.254;2023-05-16T19:35:39;16.50;99.90
33091;DHT22;19455;46.074;13.254;2023-05-16T19:38:04;16.50;99.90
33091;DHT22;19455;46.074;13.254;2023-05-16T19:40:32;16.50;99.90
33091;DHT22;19455;46.074;13.254;2023-05-16T19:42:58;16.50;99.90
33091;DHT22;19455;46.074;13.254;2023-05-16T19:45:23;16.60;99.90
33091;DHT22;19455;46.074;13.254;2023-05-16T19:47:49;16.70;99.90
33091;DHT22;19455;46.074;13.254;2023-05-16T19:50:15;16.70;99.90
33091;DHT22;19455;46.074;13.254;2023-05-16T19:52:41;16.80;99.90
33091;DHT22;19455;46.074;13.254;2023-05-16T19:57:53;16.80;99.90
33091;DHT22;19455;46.074;13.254;2023-05-16T20:00:19;16.80;99.90
33091;DHT22;19455;46.074;13.254;2023-05-16T20:02:46;16.90;99.90
33091;DHT22;19455;46.074;13.254;2023-05-16T20:05:11;16.90;99.90
33091;DHT22;19455;46.074;13.254;2023-05-16T20:07:55;16.80;99.90
33091;DHT22;19455;46.074;13.254;2023-05-16T20:10:21;16.80;99.90
33091;DHT22;19455;46.074;13.254;2023-05-16T20:12:47;16.90;99.90
33091;DHT22;19455;46.074;13.254;2023-05-16T20:15:13;16.90;99.90
33091;DHT22;19455;46.074;13.254;2023-05-16T20:17:39;16.90;99.90
33091;DHT22;19455;46.074;13.254;2023-05-16T20:20:07;16.90;99.90
33091;DHT22;19455;46.074;13.254;2023-05-16T20:22:33;16.90;99.90
33091;DHT22;19455;46.074;13.254;2023-05-16T20:25:07;16.90;99.90
33091;DHT22;19455;46.074;13.254;2023-05-16T20:27:33;17.00;99.90
33091;DHT22;19455;46.074;13.254;2023-05-16T20:30:00;17.00;99.90
33091;DHT22;19455;46.074;13.254;2023-05-16T20:32:26;17.00;99.90
33091;DHT22;19455;46.074;13.254;2023-05-16T20:34:52;17.00;99.90
33091;DHT22;19455;46.074;13.254;2023-05-16T20:37:18;17.10;99.90
33091;DHT22;19455;46.074;13.254;2023-05-16T20:39:45;17.10;99.90
33091;DHT22;19455;46.074;13.254;2023-05-16T20:42:11;17.10;99.90
33091;DHT22;19455;46.074;13.254;2023-05-16T20:44:37;17.10;99.90
33091;DHT22;19455;46.074;13.254;2023-05-16T20:47:04;17.10;99.90
33091;DHT22;19455;46.074;13.254;2023-05-16T20:49:30;17.10;99.90
33091;DHT22;19455;46.074;13.254;2023-05-16T20:51:56;17.10;99.90
33091;DHT22;19455;46.074;13.254;2023-05-16T20:54:21;17.10;99.90
33091;DHT22;19455;46.074;13.254;2023-05-16T20:57:06;17.00;99.90
33091;DHT22;19455;46.074;13.254;2023-05-16T20:59:32;17.00;99.90
33091;DHT22;19455;46.074;13.254;2023-05-16T21:01:58;17.00;99.90
33091;DHT22;19455;46.074;13.254;2023-05-16T21:04:24;16.90;99.90
33091;DHT22;19455;46.074;13.254;2023-05-16T21:06:50;16.80;99.90
33091;DHT22;19455;46.074;13.254;2023-05-16T21:09:16;16.60;99.90
33091;DHT22;19455;46.074;13.254;2023-05-16T21:11:42;16.60;99.90
33091;DHT22;19455;46.074;13.254;2023-05-16T21:14:07;16.50;99.90
33091;DHT22;19455;46.074;13.254;2023-05-16T21:16:33;16.40;99.90
33091;DHT22;19455;46.074;13.254;2023-05-16T21:18:59;16.40;99.90
33091;DHT22;19455;46.074;13.254;2023-05-16T21:24:11;16.30;99.90
33091;DHT22;19455;46.074;13.254;2023-05-16T21:26:56;16.30;99.90
33091;DHT22;19455;46.074;13.254;2023-05-16T21:32:06;16.20;99.90
33091;DHT22;19455;46.074;13.254;2023-05-16T21:34:33;16.20;99.90
33091;DHT22;19455;46.074;13.254;2023-05-16T21:36:59;16.20;99.90
33091;DHT22;19455;46.074;13.254;2023-05-16T21:39:25;16.10;99.90
33091;DHT22;19455;46.074;13.254;2023-05-16T21:41:50;16.10;99.90
33091;DHT22;19455;46.074;13.254;2023-05-16T21:44:16;16.00;99.90
33091;DHT22;19455;46.074;13.254;2023-05-16T21:46:43;16.00;99.90
33091;DHT22;19455;46.074;13.254;2023-05-16T21:49:09;16.10;99.90
33091;DHT22;19455;46.074;13.254;2023-05-16T21:51:36;16.00;99.90
33091;DHT22;19455;46.074;13.254;2023-05-16T21:54:02;16.00;99.90
33091;DHT22;19455;46.074;13.254;2023-05-16T21:56:28;15.90;99.90
33091;DHT22;19455;46.074;13.254;2023-05-16T21:58:54;15.90;99.90
33091;DHT22;19455;46.074;13.254;2023-05-16T22:04:06;15.80;99.90
33091;DHT22;19455;46.074;13.254;2023-05-16T22:06:32;15.60;99.90
33091;DHT22;19455;46.074;13.254;2023-05-16T22:09:16;15.60;99.90
33091;DHT22;19455;46.074;13.254;2023-05-16T22:14:26;15.60;99.90
33091;DHT22;19455;46.074;13.254;2023-05-16T22:43:34;15.90;99.90
33091;DHT22;19455;46.074;13.254;2023-05-16T22:46:00;15.90;99.90
33091;DHT22;19455;46.074;13.254;2023-05-16T22:48:25;15.90;99.90
33091;DHT22;19455;46.074;13.254;2023-05-16T22:50:51;15.90;99.90
33091;DHT22;19455;46.074;13.254;2023-05-16T22:53:17;16.00;99.90
33091;DHT22;19455;46.074;13.254;2023-05-16T22:55:42;15.90;99.90
33091;DHT22;19455;46.074;13.254;2023-05-16T22:58:08;15.90;99.90
33091;DHT22;19455;46.074;13.254;2023-05-16T23:00:34;15.90;99.90
33091;DHT22;19455;46.074;13.254;2023-05-16T23:06:26;15.90;99.90
33091;DHT22;19455;46.074;13.254;2023-05-16T23:08:53;16.00;99.90
33091;DHT22;19455;46.074;13.254;2023-05-16T23:11:19;16.00;99.90
33091;DHT22;19455;46.074;13.254;2023-05-16T23:13:45;15.90;99.90
33091;DHT22;19455;46.074;13.254;2023-05-16T23:16:10;16.00;99.90
33091;DHT22;19455;46.074;13.254;2023-05-16T23:18:36;16.00;99.90
33091;DHT22;19455;46.074;13.254;2023-05-16T23:21:02;16.00;99.90
